KPTW

Heritage Field Airport

Pottstown, Pennsylvania, USA
METAR KPTW 190654Z AUTO 00000KT 7SM CLR M09/M13 A3006 RMK AO2 SLP181 T10941128
Observed Flight Rules
Jan-19 @ 06:54 UTC (18 minutes ago) Visual Flight Rules
Wind Visibility Clouds
Calm 7 miles
  • Clear skies
Temperatures Readings
Current -9°C / 16°F
Dewpoint -13°C / 9°F
Humidity 73%
Altimeter 30.06" Hg
Pressure 1018.1 hPa
Elevation 92
METAR KPTW 190654Z AUTO 00000KT 7SM CLR M09/M13 A3006 RMK AO2 SLP181 T10941128
Observed Flight Rules
Jan-19 @ 06:54 UTC
(18 minutes ago)
VFR
Wind Visibility
Calm 7 miles
Clouds
  • Clear skies
Temperature Dewpoint
-9°C / 16°F -13°C / 9°F
Humidity Altimeter Pressure
73% 30.06" Hg 1018.1 hPa